createdAt,value
2023-01-29T00:02:27.061Z,101939.50
2023-01-29T00:04:58.908Z,101931.03
2023-01-29T00:07:27.108Z,101926.97
2023-01-29T00:09:55.411Z,101921.63
2023-01-29T00:12:24.546Z,101914.44
2023-01-29T00:14:52.315Z,101911.88
2023-01-29T00:17:20.123Z,101911.88
2023-01-29T00:19:47.953Z,101916.25
2023-01-29T00:22:15.680Z,101914.72
2023-01-29T00:24:44.265Z,101912.75
2023-01-29T00:27:11.984Z,101906.00
2023-01-29T00:29:41.655Z,101913.56
2023-01-29T00:32:09.479Z,101911.94
2023-01-29T00:34:38.140Z,101903.97
2023-01-29T00:37:08.840Z,101912.69
2023-01-29T00:39:47.481Z,101909.63
2023-01-29T00:42:34.502Z,101904.28
2023-01-29T00:45:04.672Z,101908.38
2023-01-29T00:47:35.549Z,101906.28
2023-01-29T00:50:06.858Z,101915.47
2023-01-29T00:52:36.416Z,101898.56
2023-01-29T00:55:06.920Z,101894.81
2023-01-29T00:57:36.855Z,101896.81
2023-01-29T01:00:10.225Z,101887.78
2023-01-29T01:02:56.783Z,101884.47
2023-01-29T01:05:25.117Z,101873.69
2023-01-29T01:07:57.411Z,101864.81
2023-01-29T01:10:30.307Z,101874.66
2023-01-29T01:13:02.388Z,101861.47
2023-01-29T01:15:36.535Z,101865.28
2023-01-29T01:18:05.207Z,101861.50
2023-01-29T01:20:35.707Z,101856.69
2023-01-29T01:23:04.316Z,101859.13
2023-01-29T01:25:32.312Z,101858.72
2023-01-29T01:28:03.204Z,101861.63
2023-01-29T01:30:33.052Z,101863.25
2023-01-29T01:33:01.655Z,101876.78
2023-01-29T01:35:29.756Z,101877.41
2023-01-29T01:37:57.615Z,101875.25
2023-01-29T01:40:26.763Z,101850.06
2023-01-29T01:42:57.245Z,101855.41
2023-01-29T01:45:29.880Z,101854.88
2023-01-29T01:48:06.646Z,101857.19
2023-01-29T01:50:42.638Z,101866.19
2023-01-29T01:53:16.909Z,101854.75
2023-01-29T01:55:52.577Z,101862.44
2023-01-29T01:58:29.340Z,101864.75
2023-01-29T02:00:57.895Z,101863.72
2023-01-29T02:03:50.020Z,101866.00
2023-01-29T02:06:36.543Z,101870.41
2023-01-29T02:09:32.005Z,101871.00
2023-01-29T02:12:00.823Z,101888.00
2023-01-29T02:14:28.891Z,101894.94
2023-01-29T02:16:56.834Z,101884.72
2023-01-29T02:19:45.823Z,101886.34
2023-01-29T02:22:41.944Z,101893.91
2023-01-29T02:25:42.796Z,101895.97
2023-01-29T02:28:25.676Z,101882.16
2023-01-29T02:31:06.228Z,101881.03
2023-01-29T02:33:52.037Z,101881.25
2023-01-29T02:36:34.834Z,101881.63
2023-01-29T02:39:17.077Z,101890.06
2023-01-29T02:41:56.034Z,101877.28
2023-01-29T02:44:37.401Z,101882.09
2023-01-29T02:47:18.874Z,101885.41
2023-01-29T02:49:55.601Z,101888.47
2023-01-29T02:52:33.000Z,101879.09
2023-01-29T02:55:12.544Z,101892.75
2023-01-29T02:57:44.492Z,101891.00
2023-01-29T03:00:21.598Z,101889.44
2023-01-29T03:02:59.223Z,101888.59
2023-01-29T03:05:32.993Z,101893.72
2023-01-29T03:08:10.450Z,101896.19
2023-01-29T03:10:45.840Z,101888.94
2023-01-29T03:13:21.610Z,101885.34
2023-01-29T03:16:01.645Z,101889.59
2023-01-29T03:18:54.178Z,101885.91
2023-01-29T03:21:49.555Z,101878.19
2023-01-29T03:24:45.083Z,101877.88
2023-01-29T03:27:35.385Z,101867.19
2023-01-29T03:30:28.125Z,101865.13
2023-01-29T03:33:12.218Z,101868.91
2023-01-29T03:35:48.609Z,101863.75
2023-01-29T03:38:17.121Z,101850.81
2023-01-29T03:40:54.968Z,101850.97
2023-01-29T03:43:33.909Z,101853.78
2023-01-29T03:46:11.719Z,101843.13
2023-01-29T03:48:54.376Z,101834.69
2023-01-29T03:51:30.011Z,101821.91
2023-01-29T03:54:09.790Z,101816.22
2023-01-29T03:56:57.062Z,101812.00
2023-01-29T03:59:39.388Z,101820.88
2023-01-29T04:02:27.607Z,101817.25
2023-01-29T04:05:10.237Z,101816.81
2023-01-29T04:08:00.760Z,101813.78
2023-01-29T04:10:30.679Z,101817.88
2023-01-29T04:13:04.444Z,101825.25
2023-01-29T04:15:43.437Z,101821.88
2023-01-29T04:18:11.854Z,101821.97
2023-01-29T04:21:01.590Z,101819.34
2023-01-29T04:23:30.153Z,101796.81
2023-01-29T04:26:24.456Z,101799.78
2023-01-29T04:29:16.210Z,101804.53
2023-01-29T04:31:59.958Z,101795.63
2023-01-29T04:34:35.315Z,101796.34
2023-01-29T04:37:22.376Z,101799.41
2023-01-29T04:40:00.111Z,101789.25
2023-01-29T04:42:37.240Z,101778.47
2023-01-29T04:45:20.739Z,101783.50
2023-01-29T04:48:01.148Z,101778.00
2023-01-29T04:50:38.153Z,101770.75
2023-01-29T04:53:18.598Z,101761.22
2023-01-29T04:55:51.260Z,101774.06
2023-01-29T04:58:32.002Z,101766.13
2023-01-29T05:01:04.973Z,101752.94
2023-01-29T05:03:36.932Z,101760.28
2023-01-29T05:06:08.000Z,101764.66
2023-01-29T05:08:39.775Z,101771.59
2023-01-29T05:11:08.343Z,101766.56
2023-01-29T05:13:41.721Z,101765.41
2023-01-29T05:16:19.137Z,101778.34
2023-01-29T05:18:47.826Z,101770.25
2023-01-29T05:21:15.762Z,101763.94
2023-01-29T05:23:53.191Z,101766.00
2023-01-29T05:26:40.634Z,101771.13
2023-01-29T05:29:08.641Z,101771.13
2023-01-29T05:31:36.438Z,101777.00
2023-01-29T05:34:04.206Z,101784.81
2023-01-29T05:36:32.046Z,101785.63
2023-01-29T05:39:01.225Z,101785.38
2023-01-29T05:41:29.020Z,101784.75
2023-01-29T05:43:57.069Z,101787.81
2023-01-29T05:46:25.205Z,101788.06
2023-01-29T05:48:53.316Z,101788.75
2023-01-29T05:51:21.209Z,101791.16
2023-01-29T05:53:49.091Z,101791.06
2023-01-29T05:56:18.390Z,101789.38
2023-01-29T05:58:46.345Z,101795.22
2023-01-29T06:01:17.968Z,101790.25
2023-01-29T06:03:46.521Z,101782.69
2023-01-29T06:06:15.585Z,101771.97
2023-01-29T06:08:43.625Z,101778.06
2023-01-29T06:11:13.839Z,101783.56
2023-01-29T06:13:43.081Z,101775.25
2023-01-29T06:16:13.525Z,101767.06
2023-01-29T06:18:42.064Z,101767.88
2023-01-29T06:21:13.034Z,101780.59
2023-01-29T06:23:41.345Z,101790.16
2023-01-29T06:26:13.631Z,101782.91
2023-01-29T06:28:45.078Z,101783.63
2023-01-29T06:31:33.015Z,101780.59
2023-01-29T06:34:00.675Z,101798.22
2023-01-29T06:36:28.434Z,101793.34
2023-01-29T06:38:56.244Z,101788.94
2023-01-29T06:41:25.561Z,101775.88
2023-01-29T06:43:54.886Z,101779.19
2023-01-29T06:46:22.672Z,101788.78
2023-01-29T06:48:50.596Z,101795.47
2023-01-29T06:51:18.693Z,101788.78
2023-01-29T06:53:46.980Z,101782.19
2023-01-29T06:56:14.983Z,101778.13
2023-01-29T06:58:43.698Z,101766.06
2023-01-29T07:01:25.346Z,101771.66
2023-01-29T07:04:02.958Z,101789.94
2023-01-29T07:06:31.987Z,101784.84
2023-01-29T07:09:00.308Z,101781.22
2023-01-29T07:11:28.168Z,101785.88
2023-01-29T07:13:56.132Z,101778.94
2023-01-29T07:16:26.274Z,101774.34
2023-01-29T07:18:54.594Z,101772.53
2023-01-29T07:21:22.481Z,101765.22
2023-01-29T07:23:50.544Z,101767.28
2023-01-29T07:26:18.358Z,101772.94
2023-01-29T07:28:46.387Z,101772.53
2023-01-29T07:31:15.447Z,101775.13
2023-01-29T07:33:45.298Z,101773.59
2023-01-29T07:36:14.142Z,101787.88
2023-01-29T07:38:42.053Z,101777.41
2023-01-29T07:41:11.740Z,101758.06
2023-01-29T07:43:39.590Z,101756.91
2023-01-29T07:46:07.796Z,101758.56
2023-01-29T07:48:36.468Z,101758.25
2023-01-29T07:51:06.726Z,101754.53
2023-01-29T07:53:34.612Z,101760.63
2023-01-29T07:56:03.285Z,101757.41
2023-01-29T07:58:31.215Z,101760.72
2023-01-29T08:00:58.985Z,101746.84
2023-01-29T08:03:26.847Z,101755.09
2023-01-29T08:05:54.581Z,101752.44
2023-01-29T08:08:23.760Z,101748.16
2023-01-29T08:10:51.621Z,101751.78
2023-01-29T08:13:19.460Z,101738.88
2023-01-29T08:15:47.355Z,101732.66
2023-01-29T08:18:15.537Z,101735.22
2023-01-29T08:20:43.496Z,101731.56
2023-01-29T08:23:14.974Z,101724.44
2023-01-29T08:25:44.724Z,101716.03
2023-01-29T08:28:12.651Z,101712.75
2023-01-29T08:30:41.471Z,101704.31
2023-01-29T08:33:09.632Z,101689.63
2023-01-29T08:35:38.814Z,101693.94
2023-01-29T08:38:06.662Z,101685.53
2023-01-29T08:40:35.114Z,101680.44
2023-01-29T08:43:09.484Z,101683.72
2023-01-29T08:45:41.192Z,101688.69
2023-01-29T08:48:10.261Z,101694.25
2023-01-29T08:50:38.446Z,101681.38
2023-01-29T08:53:08.759Z,101689.88
2023-01-29T08:55:39.394Z,101675.25
2023-01-29T08:58:12.330Z,101669.56
2023-01-29T09:00:40.157Z,101672.13
2023-01-29T09:03:08.268Z,101676.53
2023-01-29T09:05:37.677Z,101678.03
2023-01-29T09:08:06.777Z,101686.97
2023-01-29T09:10:35.693Z,101688.97
2023-01-29T09:13:04.786Z,101692.09
2023-01-29T09:15:33.920Z,101691.22
2023-01-29T09:18:04.327Z,101692.31
2023-01-29T09:20:33.004Z,101692.78
2023-01-29T09:23:05.367Z,101697.66
2023-01-29T09:25:33.273Z,101698.44
2023-01-29T09:28:01.243Z,101695.91
2023-01-29T09:30:29.401Z,101690.41
2023-01-29T09:33:00.926Z,101701.06
2023-01-29T09:35:28.986Z,101694.09
2023-01-29T09:37:57.115Z,101692.13
2023-01-29T09:40:30.621Z,101698.13
2023-01-29T09:43:04.406Z,101698.84
2023-01-29T09:45:33.367Z,101703.72
2023-01-29T09:48:05.744Z,101701.94
2023-01-29T09:50:39.866Z,101702.31
2023-01-29T09:53:19.987Z,101700.63
2023-01-29T09:55:56.498Z,101699.75
2023-01-29T09:58:31.295Z,101706.56
2023-01-29T10:01:13.914Z,101699.34
2023-01-29T10:04:19.380Z,101693.59
2023-01-29T10:07:11.500Z,101684.88
2023-01-29T10:10:08.245Z,101675.75
2023-01-29T10:12:51.535Z,101661.16
2023-01-29T10:15:38.578Z,101661.91
2023-01-29T10:18:41.502Z,101654.38
2023-01-29T10:21:32.104Z,101662.50
2023-01-29T10:24:17.993Z,101660.00
2023-01-29T10:26:46.253Z,101648.53
2023-01-29T10:29:19.643Z,101653.56
2023-01-29T10:31:55.224Z,101645.00
2023-01-29T10:34:33.298Z,101649.69
2023-01-29T10:37:31.238Z,101642.22
2023-01-29T10:40:00.934Z,101642.88
2023-01-29T10:42:39.342Z,101637.88
2023-01-29T10:45:21.230Z,101643.00
2023-01-29T10:48:42.828Z,101636.06
2023-01-29T10:51:28.673Z,101627.84
2023-01-29T10:54:20.090Z,101627.34
2023-01-29T10:57:06.916Z,101616.22
2023-01-29T11:00:01.126Z,101610.19
2023-01-29T11:02:29.217Z,101616.00
2023-01-29T11:04:57.004Z,101605.97
2023-01-29T11:07:27.683Z,101597.75
2023-01-29T11:10:07.731Z,101595.50
2023-01-29T11:12:38.891Z,101599.06
2023-01-29T11:15:19.847Z,101589.47
2023-01-29T11:18:11.446Z,101597.94
2023-01-29T11:20:41.627Z,101598.88
2023-01-29T11:23:27.298Z,101584.13
2023-01-29T11:25:58.587Z,101574.31
2023-01-29T11:28:41.150Z,101570.25
2023-01-29T11:31:22.982Z,101574.66
2023-01-29T11:34:01.113Z,101562.72
2023-01-29T11:36:38.044Z,101562.31
2023-01-29T11:39:17.871Z,101558.69
2023-01-29T11:41:55.885Z,101560.72
2023-01-29T11:44:31.172Z,101552.13
2023-01-29T11:47:17.140Z,101554.47
2023-01-29T11:49:49.748Z,101546.22
2023-01-29T11:52:21.100Z,101536.41
2023-01-29T11:54:55.192Z,101518.97
2023-01-29T11:57:31.970Z,101526.16
2023-01-29T12:00:05.070Z,101527.03
2023-01-29T12:02:42.411Z,101521.53
2023-01-29T12:05:17.151Z,101521.50
2023-01-29T12:07:51.465Z,101506.03
2023-01-29T12:10:35.453Z,101498.06
2023-01-29T12:13:26.854Z,101498.53
2023-01-29T12:16:15.581Z,101484.09
2023-01-29T12:18:53.139Z,101482.69
2023-01-29T12:21:33.439Z,101481.19
2023-01-29T12:24:12.970Z,101484.72
2023-01-29T12:26:51.952Z,101474.88
2023-01-29T12:29:40.738Z,101462.09
2023-01-29T12:32:26.431Z,101466.81
2023-01-29T12:35:04.645Z,101461.22
2023-01-29T12:37:45.305Z,101454.72
2023-01-29T12:40:17.529Z,101457.16
2023-01-29T12:42:50.418Z,101447.94
2023-01-29T12:45:24.808Z,101444.50
2023-01-29T12:47:57.646Z,101438.06
2023-01-29T12:50:30.227Z,101440.69
2023-01-29T12:53:07.427Z,101427.16
2023-01-29T12:55:43.735Z,101421.63
2023-01-29T12:58:16.688Z,101436.75
2023-01-29T13:00:51.185Z,101423.38
2023-01-29T13:03:27.244Z,101422.03
2023-01-29T13:06:00.744Z,101420.66
2023-01-29T13:08:37.312Z,101419.91
2023-01-29T13:11:14.050Z,101419.53
2023-01-29T13:13:54.137Z,101419.22
2023-01-29T13:16:30.449Z,101408.53
2023-01-29T13:19:03.480Z,101401.41
2023-01-29T13:21:39.555Z,101405.59
2023-01-29T13:24:16.346Z,101400.84
2023-01-29T13:26:46.475Z,101406.34
2023-01-29T13:29:25.099Z,101396.50
2023-01-29T13:31:57.207Z,101392.91
2023-01-29T13:34:31.601Z,101387.84
2023-01-29T13:37:04.457Z,101382.19
2023-01-29T13:39:37.607Z,101378.94
2023-01-29T13:42:20.851Z,101382.28
2023-01-29T13:44:51.890Z,101372.03
2023-01-29T13:47:27.735Z,101380.72
2023-01-29T13:50:00.131Z,101374.03
2023-01-29T13:52:37.219Z,101369.50
2023-01-29T13:55:26.071Z,101368.50
2023-01-29T13:57:56.555Z,101365.53
2023-01-29T14:00:51.774Z,101364.97
2023-01-29T14:04:05.787Z,101358.97
2023-01-29T14:06:50.382Z,101357.88
2023-01-29T14:10:03.297Z,101353.81
2023-01-29T14:12:45.516Z,101352.56
2023-01-29T14:15:28.760Z,101349.19
2023-01-29T14:18:16.172Z,101346.03
2023-01-29T14:21:02.198Z,101335.66
2023-01-29T14:23:41.314Z,101336.81
2023-01-29T14:26:33.046Z,101337.63
2023-01-29T14:29:06.825Z,101342.44
2023-01-29T14:31:43.898Z,101344.22
2023-01-29T14:34:23.421Z,101334.34
2023-01-29T14:36:56.220Z,101346.41
2023-01-29T14:39:37.930Z,101342.38
2023-01-29T14:42:24.551Z,101333.97
2023-01-29T14:45:08.665Z,101338.50
2023-01-29T14:48:34.986Z,101328.84
2023-01-29T14:51:10.901Z,101330.25
2023-01-29T14:54:02.428Z,101330.56
2023-01-29T14:56:36.024Z,101325.63
2023-01-29T14:59:18.915Z,101333.13
2023-01-29T15:01:53.619Z,101325.50
2023-01-29T15:04:27.449Z,101331.22
2023-01-29T15:07:04.413Z,101326.03
2023-01-29T15:09:45.645Z,101329.59
2023-01-29T15:12:27.725Z,101324.88
2023-01-29T15:15:10.171Z,101321.13
2023-01-29T15:17:52.334Z,101325.16
2023-01-29T15:20:29.944Z,101325.81
2023-01-29T15:22:58.011Z,101321.13
2023-01-29T15:25:34.730Z,101328.22
2023-01-29T15:28:08.568Z,101326.44
2023-01-29T15:30:38.023Z,101323.47
2023-01-29T15:33:11.638Z,101310.47
2023-01-29T15:35:42.301Z,101297.22
2023-01-29T15:38:18.401Z,101293.00
2023-01-29T15:40:57.797Z,101293.28
2023-01-29T15:43:28.639Z,101283.66
2023-01-29T15:46:01.640Z,101282.44
2023-01-29T15:48:36.246Z,101280.88
2023-01-29T15:51:07.832Z,101272.13
2023-01-29T15:53:42.087Z,101277.94
2023-01-29T15:56:15.892Z,101271.03
2023-01-29T15:58:49.623Z,101261.75
2023-01-29T16:01:18.187Z,101258.91
2023-01-29T16:03:52.494Z,101260.38
2023-01-29T16:06:22.310Z,101258.31
2023-01-29T16:08:54.348Z,101262.56
2023-01-29T16:11:24.452Z,101255.28
2023-01-29T16:13:53.828Z,101263.72
2023-01-29T16:16:26.194Z,101251.97
2023-01-29T16:19:00.558Z,101251.13
2023-01-29T16:21:34.071Z,101243.16
2023-01-29T16:24:09.727Z,101242.56
2023-01-29T16:26:46.611Z,101236.69
2023-01-29T16:29:21.434Z,101247.47
2023-01-29T16:31:54.836Z,101235.16
2023-01-29T16:34:28.673Z,101232.00
2023-01-29T16:36:58.204Z,101232.13
2023-01-29T16:39:32.819Z,101234.94
2023-01-29T16:42:23.537Z,101237.03
2023-01-29T16:44:55.931Z,101234.69
2023-01-29T16:47:30.616Z,101241.88
2023-01-29T16:50:00.997Z,101234.00
2023-01-29T16:52:32.586Z,101227.63
2023-01-29T16:55:19.595Z,101231.78
2023-01-29T16:57:54.254Z,101225.53
2023-01-29T17:00:27.055Z,101215.50
2023-01-29T17:03:01.869Z,101205.00
2023-01-29T17:05:38.531Z,101194.56
2023-01-29T17:08:08.009Z,101214.06
2023-01-29T17:10:36.093Z,101207.16
2023-01-29T17:13:09.125Z,101202.06
2023-01-29T17:15:45.866Z,101204.53
2023-01-29T17:18:19.569Z,101202.72
2023-01-29T17:20:49.120Z,101196.94
2023-01-29T17:23:17.223Z,101195.38
2023-01-29T17:25:46.364Z,101190.66
2023-01-29T17:28:17.393Z,101174.88
2023-01-29T17:30:56.547Z,101162.38
2023-01-29T17:33:33.815Z,101171.22
2023-01-29T17:36:01.649Z,101176.28
2023-01-29T17:38:29.541Z,101183.16
2023-01-29T17:41:02.235Z,101183.75
2023-01-29T17:43:31.492Z,101165.22
2023-01-29T17:45:59.308Z,101160.53
2023-01-29T17:48:29.988Z,101132.22
2023-01-29T17:51:02.735Z,101128.78
2023-01-29T17:53:45.417Z,101120.91
2023-01-29T17:56:17.176Z,101129.56
2023-01-29T17:58:46.614Z,101115.59
2023-01-29T18:01:14.758Z,101127.63
2023-01-29T18:03:42.683Z,101121.19
2023-01-29T18:06:21.492Z,101119.75
2023-01-29T18:08:49.689Z,101103.56
2023-01-29T18:11:17.652Z,101126.44
2023-01-29T18:13:47.451Z,101112.81
2023-01-29T18:16:18.735Z,101102.88
2023-01-29T18:18:46.849Z,101114.97
2023-01-29T18:21:14.869Z,101115.59
2023-01-29T18:23:43.017Z,101122.28
2023-01-29T18:26:12.391Z,101116.47
2023-01-29T18:28:43.350Z,101116.78
2023-01-29T18:31:14.457Z,101111.44
2023-01-29T18:33:42.598Z,101109.44
2023-01-29T18:36:10.961Z,101100.69
2023-01-29T18:38:39.093Z,101093.50
2023-01-29T18:41:11.697Z,101091.41
2023-01-29T18:43:41.389Z,101089.69
2023-01-29T18:46:09.823Z,101087.53
2023-01-29T18:48:41.566Z,101089.97
2023-01-29T18:51:10.513Z,101073.28
2023-01-29T18:53:38.504Z,101070.41
2023-01-29T18:56:08.095Z,101070.50
2023-01-29T18:58:37.195Z,101059.69
2023-01-29T19:01:09.713Z,101059.00
2023-01-29T19:03:41.207Z,101047.41
2023-01-29T19:06:11.170Z,101060.38
2023-01-29T19:08:40.780Z,101067.75
2023-01-29T19:11:09.035Z,101059.00
2023-01-29T19:13:38.006Z,101047.41
2023-01-29T19:16:08.991Z,101048.47
2023-01-29T19:18:37.319Z,101030.88
2023-01-29T19:21:12.613Z,101027.31
2023-01-29T19:23:42.260Z,101022.41
2023-01-29T19:26:11.375Z,101022.81
2023-01-29T19:28:39.755Z,101017.22
2023-01-29T19:31:09.275Z,101015.16
2023-01-29T19:33:37.334Z,101014.72
2023-01-29T19:36:06.558Z,101010.97
2023-01-29T19:38:38.624Z,100999.47
2023-01-29T19:41:06.855Z,101004.50
2023-01-29T19:43:34.982Z,100996.44
2023-01-29T19:46:03.043Z,100994.63
2023-01-29T19:48:30.987Z,100975.75
2023-01-29T19:51:01.654Z,100972.59
2023-01-29T19:53:31.551Z,100962.53
2023-01-29T19:56:04.849Z,100967.84
2023-01-29T19:58:34.134Z,100955.63
2023-01-29T20:01:05.287Z,100933.34
2023-01-29T20:03:38.079Z,100937.28
2023-01-29T20:06:07.060Z,100931.41
2023-01-29T20:08:35.886Z,100937.41
2023-01-29T20:11:05.741Z,100918.59
2023-01-29T20:13:34.029Z,100922.91
2023-01-29T20:16:03.789Z,100908.53
2023-01-29T20:18:32.602Z,100918.34
2023-01-29T20:21:07.168Z,100928.84
2023-01-29T20:23:38.480Z,100930.19
2023-01-29T20:26:12.490Z,100931.44
2023-01-29T20:28:41.798Z,100921.88
2023-01-29T20:31:10.684Z,100909.88
2023-01-29T20:33:40.374Z,100918.53
2023-01-29T20:36:12.172Z,100907.78
2023-01-29T20:38:41.021Z,100909.91
2023-01-29T20:41:14.905Z,100905.31
2023-01-29T20:43:44.274Z,100912.19
2023-01-29T20:46:13.477Z,100905.66
2023-01-29T20:48:42.136Z,100909.22
2023-01-29T20:51:15.414Z,100914.56
2023-01-29T20:53:45.808Z,100890.47
2023-01-29T20:56:17.166Z,100867.00
2023-01-29T20:58:46.879Z,100862.41
2023-01-29T21:01:21.794Z,100862.41
2023-01-29T21:03:49.869Z,100874.63
2023-01-29T21:06:17.982Z,100871.81
2023-01-29T21:08:46.124Z,100878.16
2023-01-29T21:11:15.757Z,100879.38
2023-01-29T21:13:43.950Z,100885.06
2023-01-29T21:16:12.366Z,100890.34
2023-01-29T21:18:40.455Z,100897.16
2023-01-29T21:21:08.517Z,100904.16
2023-01-29T21:23:36.547Z,100903.97
2023-01-29T21:26:09.183Z,100915.63
2023-01-29T21:28:38.976Z,100898.84
2023-01-29T21:31:12.149Z,100901.03
2023-01-29T21:33:41.003Z,100905.72
2023-01-29T21:36:14.045Z,100902.00
2023-01-29T21:38:42.514Z,100870.03
2023-01-29T21:41:10.576Z,100860.66
2023-01-29T21:43:40.061Z,100874.97
2023-01-29T21:46:11.970Z,100878.88
2023-01-29T21:48:40.538Z,100870.72
2023-01-29T21:51:09.014Z,100876.19
2023-01-29T21:53:37.286Z,100898.56
2023-01-29T21:56:06.510Z,100867.00
2023-01-29T21:58:34.531Z,100882.09
2023-01-29T22:01:11.511Z,100877.19
2023-01-29T22:03:51.895Z,100866.81
2023-01-29T22:06:20.090Z,100860.81
2023-01-29T22:08:49.693Z,100856.03
2023-01-29T22:11:18.175Z,100868.44
2023-01-29T22:13:46.871Z,100877.53
2023-01-29T22:16:16.328Z,100884.88
2023-01-29T22:18:44.783Z,100887.38
2023-01-29T22:21:12.805Z,100890.53
2023-01-29T22:23:41.318Z,100870.53
2023-01-29T22:26:12.075Z,100851.56
2023-01-29T22:28:40.500Z,100847.03
2023-01-29T22:31:08.517Z,100841.47
2023-01-29T22:33:37.951Z,100842.63
2023-01-29T22:36:07.592Z,100823.69
2023-01-29T22:38:35.726Z,100815.28
2023-01-29T22:41:04.634Z,100806.72
2023-01-29T22:43:32.711Z,100778.03
2023-01-29T22:46:00.829Z,100760.34
2023-01-29T22:48:30.530Z,100730.13
2023-01-29T22:51:13.596Z,100697.63
2023-01-29T22:53:44.347Z,100678.16
2023-01-29T22:56:12.495Z,100684.81
2023-01-29T22:58:41.135Z,100684.59
2023-01-29T23:01:10.450Z,100655.06
2023-01-29T23:03:38.468Z,100681.53
2023-01-29T23:06:11.049Z,100701.59
2023-01-29T23:08:39.388Z,100716.56
2023-01-29T23:11:14.717Z,100748.13
2023-01-29T23:13:44.901Z,100702.47
2023-01-29T23:16:14.353Z,100688.13
2023-01-29T23:18:43.263Z,100700.28
2023-01-29T23:21:12.735Z,100695.25
2023-01-29T23:23:41.151Z,100662.78
2023-01-29T23:26:30.035Z,100656.88
2023-01-29T23:28:59.492Z,100653.81
2023-01-29T23:31:27.305Z,100659.44
2023-01-29T23:33:55.746Z,100649.81
2023-01-29T23:36:25.262Z,100617.56
2023-01-29T23:38:53.290Z,100591.59
2023-01-29T23:41:21.343Z,100619.56
2023-01-29T23:43:50.047Z,100632.66
2023-01-29T23:46:17.787Z,100626.88
2023-01-29T23:48:45.580Z,100633.94
2023-01-29T23:51:13.549Z,100640.81
2023-01-29T23:53:42.900Z,100629.03
2023-01-29T23:56:11.676Z,100642.56
2023-01-29T23:58:39.800Z,100636.16
